CST,Max TemperatureF,Mean TemperatureF,Min TemperatureF,Max Dew PointF,MeanDew PointF,Min DewpointF,Max Humidity, Mean Humidity, Min Humidity, Max Sea Level PressureIn, Mean Sea Level PressureIn, Min Sea Level PressureIn, Max VisibilityMiles, Mean VisibilityMiles, Min VisibilityMiles, Max Wind SpeedMPH, Mean Wind SpeedMPH, Max Gust SpeedMPH,PrecipitationIn, CloudCover, Events, WindDirDegrees
2012-12-1,35,27,19,32,25,19,100,92,84,29.87,29.77,29.64,10,6,0,17,4,20,0.00,7,Fog,354
2012-12-2,46,32,17,34,26,18,100,81,62,29.79,29.58,29.29,10,6,0,14,4,18,T,3,Fog,208
2012-12-3,43,30,16,38,23,13,100,85,69,30.10,29.80,29.45,10,10,10,25,11,33,0.01,1,,306
2012-12-4,26,18,10,19,14,8,92,83,73,30.33,30.21,30.07,10,10,10,16,6,22,0.00,1,,92
2012-12-5,45,36,26,32,26,20,82,72,62,30.04,29.79,29.62,10,10,10,23,9,30,0.00,0,,209
2012-12-6,34,26,17,29,23,16,100,83,66,30.06,29.99,29.83,10,10,10,21,7,26,0.00,2,,287
2012-12-7,19,17,14,17,15,14,100,92,84,30.10,29.98,29.80,10,6,1,15,9,21,0.04,8,Snow,79
2012-12-8,19,9,-1,16,8,-4,92,86,80,30.44,29.96,29.75,10,5,0,24,13,29,0.23,7,Fog-Snow,38
2012-12-9,6,-3,-12,0,-5,-13,100,88,76,30.59,30.41,30.04,10,10,9,10,4,13,0.00,1,,183
2012-12-10,26,15,4,22,14,1,92,83,73,29.99,29.82,29.71,10,10,9,29,9,33,0.01,6,Snow,283
2012-12-11,29,23,16,26,18,12,92,83,74,29.88,29.70,29.48,10,9,2,20,6,23,0.01,7,Snow,125
2012-12-12,30,22,13,24,16,10,100,90,80,30.04,29.77,29.57,10,7,0,13,6,15,0.00,8,Fog,21
2012-12-13,32,22,12,30,17,10,100,94,88,30.07,29.96,29.81,10,5,1,10,2,13,0.05,8,Snow,76
2012-12-14,33,20,7,31,21,8,100,91,81,29.88,29.78,29.69,10,5,0,12,4,16,0.00,5,Fog,168
2012-12-15,24,15,6,23,16,3,100,96,91,29.93,29.83,29.69,10,5,0,9,3,12,0.00,7,Fog,241
2012-12-16,21,15,9,20,15,9,100,90,80,29.86,29.77,29.72,10,4,0,8,4,12,T,6,Fog-Snow,140
2012-12-17,23,12,1,19,9,0,100,92,84,29.74,29.58,29.43,10,5,0,9,3,14,T,4,Fog-Snow,130
2012-12-18,32,23,13,27,18,12,100,87,73,29.77,29.56,29.43,10,9,2,22,9,28,0.01,7,Snow,227
2012-12-19,16,13,10,11,7,-5,92,84,76,30.21,29.98,29.73,10,6,2,21,13,26,0.05,7,Snow,296
2012-12-20,15,4,-7,7,-1,-10,100,84,67,30.23,30.19,30.06,10,9,7,6,1,7,0.00,0,,157
2012-12-21,25,14,2,15,8,1,95,82,68,30.18,30.12,30.05,10,10,10,18,4,22,0.00,0,,282
2012-12-22,10,6,2,5,1,-2,95,84,73,30.34,30.24,30.12,10,9,4,22,10,26,T,5,Snow,21
2012-12-23,8,6,4,4,3,0,91,86,80,30.29,30.16,30.06,10,5,1,16,7,20,0.06,8,Snow,95
2012-12-24,6,3,-1,1,-2,-6,91,84,76,30.58,30.35,30.13,10,8,2,14,5,15,0.03,8,Snow,60
2012-12-25,4,-6,-16,1,-3,-16,100,90,79,30.61,30.45,30.29,10,5,1,9,2,9,0.06,7,Snow,13
2012-12-26,6,-7,-20,2,-9,-25,91,84,77,30.42,30.21,30.02,10,7,1,10,5,13,T,6,Snow,51
2012-12-27,10,2,-6,4,-1,-10,95,84,73,30.19,30.15,30.00,10,10,9,6,2,7,0.00,6,,244
2012-12-28,9,0,-10,4,-2,-11,95,86,76,30.17,30.11,29.97,10,9,2,9,4,12,0.01,5,Snow,223
2012-12-29,24,8,-8,16,10,-6,96,84,71,30.11,30.07,29.94,10,10,10,17,4,21,0.00,3,,212
2012-12-30,23,14,5,18,12,5,100,89,77,30.24,30.07,29.94,10,8,2,18,7,22,T,7,Snow,290
2012-12-31,17,12,7,14,9,4,100,88,76,30.26,30.18,30.05,10,10,10,9,3,10,T,8,,141